createdAt,value
2022-11-04T00:02:23.475Z,0.70
2022-11-04T00:04:54.181Z,0.63
2022-11-04T00:07:21.845Z,0.70
2022-11-04T00:09:48.874Z,0.76
2022-11-04T00:15:33.334Z,0.86
2022-11-04T00:18:01.854Z,0.87
2022-11-04T00:20:31.401Z,0.71
2022-11-04T00:23:10.477Z,0.58
2022-11-04T00:31:17.990Z,0.53
2022-11-04T00:33:48.742Z,0.58
2022-11-04T00:36:16.250Z,0.63
2022-11-04T00:38:47.918Z,0.57
2022-11-04T00:41:15.060Z,0.63
2022-11-04T00:43:41.813Z,0.62
2022-11-04T00:46:08.959Z,0.66
2022-11-04T00:48:46.513Z,0.60
2022-11-04T00:51:22.735Z,0.61
2022-11-04T00:53:50.322Z,0.54
2022-11-04T00:56:19.324Z,0.44
2022-11-04T00:58:47.279Z,0.51
2022-11-04T01:01:14.950Z,0.45
2022-11-04T01:03:43.677Z,0.55
2022-11-04T01:06:11.752Z,0.53
2022-11-04T01:08:39.075Z,0.43
2022-11-04T01:11:09.540Z,0.49
2022-11-04T01:13:36.654Z,0.41
2022-11-04T01:16:04.657Z,0.44
2022-11-04T01:18:42.665Z,0.44
2022-11-04T01:21:11.190Z,0.38
2022-11-04T01:23:46.458Z,0.45
2022-11-04T01:26:13.494Z,0.46
2022-11-04T01:28:40.499Z,0.44
2022-11-04T01:31:07.989Z,0.67
2022-11-04T01:33:39.741Z,0.50
2022-11-04T01:36:06.786Z,0.54
2022-11-04T01:38:35.337Z,0.48
2022-11-04T01:41:02.591Z,0.44
2022-11-04T01:43:30.146Z,0.46
2022-11-04T01:45:57.397Z,0.47
2022-11-04T01:48:25.212Z,0.39
2022-11-04T01:50:52.275Z,0.43
2022-11-04T01:53:19.074Z,0.47
2022-11-04T01:55:46.073Z,0.68
2022-11-04T01:58:13.729Z,0.46
2022-11-04T02:00:40.465Z,0.46
2022-11-04T02:03:09.744Z,0.38
2022-11-04T02:05:39.224Z,0.33
2022-11-04T02:08:06.363Z,0.43
2022-11-04T02:10:34.047Z,0.50
2022-11-04T02:13:09.341Z,0.46
2022-11-04T02:15:38.289Z,0.51
2022-11-04T02:21:20.467Z,0.42
2022-11-04T02:23:47.427Z,0.48
2022-11-04T02:26:15.940Z,0.51
2022-11-04T02:28:44.455Z,0.46
2022-11-04T02:31:11.392Z,0.52
2022-11-04T02:33:40.030Z,0.55
2022-11-04T02:36:07.625Z,0.48
2022-11-04T02:38:36.728Z,0.48
2022-11-04T02:41:03.386Z,0.56
2022-11-04T02:43:30.926Z,0.49
2022-11-04T02:45:58.440Z,0.52
2022-11-04T02:48:26.187Z,0.52
2022-11-04T02:50:52.932Z,0.50
2022-11-04T02:53:22.041Z,0.79
2022-11-04T02:55:49.446Z,0.60
2022-11-04T02:58:16.866Z,0.57
2022-11-04T03:00:44.445Z,0.48
2022-11-04T03:03:11.241Z,0.98
2022-11-04T03:05:38.134Z,0.69
2022-11-04T03:08:05.019Z,0.69
2022-11-04T03:10:38.066Z,0.61
2022-11-04T03:13:05.065Z,0.59
2022-11-04T03:15:36.536Z,0.63
2022-11-04T03:18:03.663Z,0.52
2022-11-04T03:20:30.713Z,0.70
2022-11-04T03:22:59.075Z,0.72
2022-11-04T03:25:27.659Z,0.73
2022-11-04T03:27:54.622Z,0.79
2022-11-04T03:30:22.927Z,0.84
2022-11-04T03:32:49.910Z,0.70
2022-11-04T03:35:18.515Z,0.86
2022-11-04T03:37:46.151Z,0.79
2022-11-04T03:40:13.639Z,0.75
2022-11-04T03:45:43.801Z,0.66
2022-11-04T03:48:10.398Z,0.65
2022-11-04T03:50:37.193Z,0.66
2022-11-04T03:53:07.018Z,0.81
2022-11-04T03:55:34.158Z,0.82
2022-11-04T03:58:04.536Z,0.89
2022-11-04T04:00:31.508Z,0.95
2022-11-04T04:02:58.489Z,0.81
2022-11-04T04:05:25.997Z,0.86
2022-11-04T04:07:52.985Z,0.86
2022-11-04T04:10:20.011Z,0.81
2022-11-04T04:13:06.921Z,0.92
2022-11-04T04:15:51.136Z,1.00
2022-11-04T04:18:17.962Z,1.07
2022-11-04T04:20:46.494Z,1.23
2022-11-04T04:26:09.080Z,1.08
2022-11-04T04:28:37.482Z,1.11
2022-11-04T04:31:05.922Z,0.72
2022-11-04T04:33:37.424Z,0.94
2022-11-04T04:36:04.354Z,1.01
2022-11-04T04:38:32.242Z,1.03
2022-11-04T04:43:26.023Z,0.93
2022-11-04T04:45:53.634Z,1.05
2022-11-04T04:48:21.052Z,1.28
2022-11-04T04:50:48.059Z,0.94
2022-11-04T04:53:14.752Z,0.96
2022-11-04T04:55:42.959Z,1.08
2022-11-04T04:58:09.564Z,1.18
2022-11-04T05:00:36.557Z,1.15
2022-11-04T05:03:03.420Z,1.10
2022-11-04T05:05:30.204Z,1.01
2022-11-04T05:07:56.899Z,1.04
2022-11-04T05:10:24.018Z,0.95
2022-11-04T05:12:51.427Z,1.29
2022-11-04T05:15:18.608Z,1.04
2022-11-04T05:17:46.824Z,1.01
2022-11-04T05:20:17.052Z,1.03
2022-11-04T05:22:43.935Z,1.27
2022-11-04T05:25:10.951Z,1.44
2022-11-04T05:27:37.601Z,1.30
2022-11-04T05:30:05.128Z,1.36
2022-11-04T05:32:31.784Z,1.28
2022-11-04T05:34:58.655Z,1.58
2022-11-04T05:37:26.208Z,1.33
2022-11-04T05:39:53.028Z,1.31
2022-11-04T05:42:20.789Z,1.30
2022-11-04T05:44:47.790Z,1.35
2022-11-04T05:47:22.042Z,1.33
2022-11-04T05:49:52.936Z,1.09
2022-11-04T05:52:19.758Z,1.15
2022-11-04T05:54:46.291Z,1.17
2022-11-04T05:57:13.453Z,1.12
2022-11-04T05:59:40.400Z,1.05
2022-11-04T06:02:07.994Z,1.08
2022-11-04T06:04:35.236Z,1.23
2022-11-04T06:07:05.323Z,1.70
2022-11-04T06:09:36.842Z,1.95
2022-11-04T06:12:06.456Z,1.85
2022-11-04T06:14:44.351Z,1.68
2022-11-04T06:19:39.237Z,1.54
2022-11-04T06:22:06.897Z,1.71
2022-11-04T06:27:15.142Z,1.66
2022-11-04T06:29:41.843Z,1.59
2022-11-04T06:32:10.448Z,1.31
2022-11-04T06:34:38.095Z,1.43
2022-11-04T06:37:07.945Z,1.52
2022-11-04T06:39:38.366Z,1.26
2022-11-04T06:42:09.592Z,1.38
2022-11-04T06:44:39.952Z,1.39
2022-11-04T06:47:09.005Z,1.20
2022-11-04T06:49:36.925Z,1.35
2022-11-04T06:54:47.361Z,1.19
2022-11-04T06:57:14.390Z,1.33
2022-11-04T06:59:42.233Z,1.13
2022-11-04T07:02:14.002Z,1.31
2022-11-04T07:04:44.140Z,1.22
2022-11-04T07:07:11.605Z,10.44
2022-11-04T07:09:38.886Z,197.85
2022-11-04T07:12:11.380Z,97.51
2022-11-04T07:14:40.152Z,28.02
2022-11-04T07:17:09.262Z,4.13
2022-11-04T07:19:35.904Z,3.53
2022-11-04T07:22:14.530Z,2.80
2022-11-04T07:24:41.494Z,1.95
2022-11-04T07:27:08.854Z,1.65
2022-11-04T07:32:28.341Z,1.53
2022-11-04T07:34:56.987Z,1.44
2022-11-04T07:37:29.642Z,1.48
2022-11-04T07:40:00.115Z,1.81
2022-11-04T07:42:28.563Z,1.50
2022-11-04T07:44:56.958Z,1.71
2022-11-04T07:50:23.273Z,1.41
2022-11-04T07:52:57.800Z,1.47
2022-11-04T07:55:24.690Z,1.37
2022-11-04T07:57:56.174Z,1.75
2022-11-04T08:00:30.101Z,1.53
2022-11-04T08:02:57.247Z,1.65
2022-11-04T08:05:26.369Z,1.73
2022-11-04T08:08:03.360Z,1.61
2022-11-04T08:10:30.395Z,1.35
2022-11-04T08:12:57.287Z,1.45
2022-11-04T08:15:25.447Z,1.43
2022-11-04T08:20:40.285Z,1.52
2022-11-04T08:23:07.931Z,1.52
2022-11-04T08:25:39.278Z,1.34
2022-11-04T08:28:06.489Z,1.75
2022-11-04T08:30:33.893Z,1.50
2022-11-04T08:33:00.854Z,1.60
2022-11-04T08:35:41.011Z,1.41
2022-11-04T08:38:08.783Z,1.37
2022-11-04T08:40:38.318Z,1.38
2022-11-04T08:43:11.846Z,1.57
2022-11-04T08:45:38.905Z,1.50
2022-11-04T08:48:07.017Z,1.59
2022-11-04T08:50:34.791Z,1.46
2022-11-04T08:53:13.042Z,1.31
2022-11-04T08:55:43.705Z,1.45
2022-11-04T08:58:12.334Z,1.36
2022-11-04T09:00:40.148Z,1.43
2022-11-04T09:03:07.489Z,1.22
2022-11-04T09:05:36.705Z,1.13
2022-11-04T09:08:03.482Z,1.22
2022-11-04T09:10:32.686Z,1.45
2022-11-04T09:13:00.040Z,2.19
2022-11-04T09:15:27.676Z,3.05
2022-11-04T09:17:56.891Z,4.97
2022-11-04T09:20:25.934Z,4.43
2022-11-04T09:22:57.793Z,3.52
2022-11-04T09:25:25.760Z,1.74
2022-11-04T09:27:54.974Z,1.49
2022-11-04T09:30:26.777Z,1.17
2022-11-04T09:32:53.373Z,1.53
2022-11-04T09:35:23.695Z,1.89
2022-11-04T09:37:51.853Z,1.81
2022-11-04T09:40:19.771Z,1.09
2022-11-04T09:42:52.408Z,1.28
2022-11-04T09:45:26.406Z,1.20
2022-11-04T09:47:53.891Z,1.57
2022-11-04T09:50:22.753Z,1.43
2022-11-04T09:52:50.117Z,1.43
2022-11-04T09:58:26.210Z,1.76
2022-11-04T10:00:53.289Z,1.72
2022-11-04T10:03:20.247Z,1.23
2022-11-04T10:05:50.607Z,1.15
2022-11-04T10:08:18.989Z,2.15
2022-11-04T10:10:45.499Z,1.60
2022-11-04T10:13:12.244Z,1.72
2022-11-04T10:15:39.421Z,1.86
2022-11-04T10:18:13.513Z,1.58
2022-11-04T10:20:44.877Z,1.45
2022-11-04T10:23:12.396Z,1.49
2022-11-04T10:25:39.192Z,2.10
2022-11-04T10:28:06.663Z,1.26
2022-11-04T10:30:35.423Z,1.06
2022-11-04T10:35:49.695Z,1.87
2022-11-04T10:38:18.163Z,2.00
2022-11-04T10:40:45.091Z,1.71
2022-11-04T10:43:13.376Z,1.32
2022-11-04T10:45:44.149Z,2.19
2022-11-04T10:48:11.935Z,1.34
2022-11-04T10:50:40.980Z,1.81
2022-11-04T10:53:08.095Z,2.31
2022-11-04T10:55:36.007Z,1.81
2022-11-04T10:58:03.102Z,2.13
2022-11-04T11:00:30.203Z,2.39
2022-11-04T11:08:54.301Z,2.39
2022-11-04T11:11:23.730Z,2.91
2022-11-04T11:13:50.784Z,2.39
2022-11-04T11:16:19.371Z,2.94
2022-11-04T11:18:46.523Z,2.89
2022-11-04T11:21:13.965Z,1.90
2022-11-04T11:23:41.147Z,2.03
2022-11-04T11:26:07.960Z,2.35
2022-11-04T11:28:35.395Z,2.82
2022-11-04T11:31:02.310Z,4.19
2022-11-04T11:33:29.499Z,2.87
2022-11-04T11:35:56.392Z,3.16
2022-11-04T11:38:24.125Z,3.15
2022-11-04T11:41:18.808Z,3.23
2022-11-04T11:43:42.185Z,2.51
2022-11-04T11:46:09.606Z,2.77
2022-11-04T11:48:38.074Z,4.65
2022-11-04T11:51:06.871Z,2.44
2022-11-04T11:53:35.497Z,3.14
2022-11-04T11:56:03.446Z,3.86
2022-11-04T12:01:24.038Z,3.22
2022-11-04T12:09:35.370Z,3.37
2022-11-04T12:12:02.062Z,3.46
2022-11-04T12:14:35.620Z,2.50
2022-11-04T12:17:02.328Z,2.28
2022-11-04T12:19:30.878Z,2.16
2022-11-04T12:21:57.503Z,2.31
2022-11-04T12:27:21.544Z,1.09
2022-11-04T12:29:49.055Z,1.11
2022-11-04T12:32:16.810Z,1.08
2022-11-04T12:34:43.760Z,1.11
2022-11-04T12:37:11.245Z,0.95
2022-11-04T12:39:38.212Z,0.95
2022-11-04T12:42:23.732Z,0.85
2022-11-04T12:44:52.516Z,1.18
2022-11-04T12:47:19.314Z,1.19
2022-11-04T12:49:46.262Z,0.67
2022-11-04T12:52:19.927Z,0.82
2022-11-04T12:54:47.564Z,0.81
2022-11-04T12:57:14.751Z,1.02
2022-11-04T12:59:49.997Z,1.00
2022-11-04T13:02:16.967Z,1.18
2022-11-04T13:04:44.491Z,0.68
2022-11-04T13:07:12.766Z,0.50
2022-11-04T13:09:41.347Z,0.65
2022-11-04T13:12:09.423Z,0.59
2022-11-04T13:14:36.965Z,0.59
2022-11-04T13:17:03.452Z,0.81
2022-11-04T13:19:31.341Z,0.53
2022-11-04T13:25:13.910Z,0.60
2022-11-04T13:27:40.880Z,0.64
2022-11-04T13:32:51.688Z,0.53
2022-11-04T13:35:20.777Z,0.65
2022-11-04T13:37:47.515Z,0.62
2022-11-04T13:40:16.057Z,0.43
2022-11-04T13:42:43.551Z,0.39
2022-11-04T13:45:10.945Z,0.60
2022-11-04T13:47:38.586Z,0.58
2022-11-04T13:50:05.886Z,0.63
2022-11-04T13:52:37.250Z,0.54
2022-11-04T13:55:03.835Z,0.55
2022-11-04T13:57:35.158Z,0.62
2022-11-04T14:00:01.935Z,0.59
2022-11-04T14:05:10.161Z,0.70
2022-11-04T14:07:41.899Z,0.61
2022-11-04T14:10:08.878Z,0.49
2022-11-04T14:12:40.897Z,0.69
2022-11-04T14:15:07.791Z,0.41
2022-11-04T14:17:38.370Z,0.57
2022-11-04T14:20:07.481Z,0.43
2022-11-04T14:22:36.948Z,0.65
2022-11-04T14:25:03.940Z,0.68
2022-11-04T14:27:31.450Z,0.61
2022-11-04T14:29:58.445Z,0.43
2022-11-04T14:32:26.866Z,0.49
2022-11-04T14:34:54.263Z,0.31
2022-11-04T14:37:21.858Z,0.48
2022-11-04T14:39:49.090Z,0.49
2022-11-04T14:42:17.419Z,0.51
2022-11-04T14:44:49.837Z,0.56
2022-11-04T14:47:17.163Z,0.60
2022-11-04T14:49:44.553Z,0.44
2022-11-04T14:52:22.501Z,0.40
2022-11-04T14:55:00.561Z,0.45
2022-11-04T14:57:27.922Z,0.94
2022-11-04T14:59:56.030Z,0.79
2022-11-04T15:02:22.969Z,0.51
2022-11-04T15:04:55.294Z,0.59
2022-11-04T15:07:22.125Z,0.72
2022-11-04T15:09:49.641Z,0.65
2022-11-04T15:12:16.466Z,0.80
2022-11-04T15:14:44.035Z,0.62
2022-11-04T15:17:12.647Z,0.83
2022-11-04T15:19:43.217Z,0.77
2022-11-04T15:22:10.900Z,0.43
2022-11-04T15:24:41.608Z,0.48
2022-11-04T15:27:09.142Z,0.38
2022-11-04T15:29:37.067Z,0.67
2022-11-04T15:32:05.303Z,0.61
2022-11-04T15:34:33.008Z,0.42
2022-11-04T15:36:59.976Z,0.53
2022-11-04T15:39:26.926Z,0.87
2022-11-04T15:41:56.152Z,0.49
2022-11-04T15:44:23.346Z,0.47
2022-11-04T15:46:50.242Z,0.61
2022-11-04T15:49:19.992Z,0.59
2022-11-04T15:51:47.272Z,0.48
2022-11-04T15:54:21.979Z,0.94
2022-11-04T15:56:49.472Z,0.66
2022-11-04T15:59:16.061Z,0.49
2022-11-04T16:01:42.967Z,1.11
2022-11-04T16:04:09.627Z,0.63
2022-11-04T16:06:39.937Z,1.11
2022-11-04T16:09:09.962Z,2.21
2022-11-04T16:11:37.009Z,0.91
2022-11-04T16:14:04.009Z,0.63
2022-11-04T16:16:32.137Z,0.66
2022-11-04T16:19:00.842Z,1.27
2022-11-04T16:21:32.165Z,1.37
2022-11-04T16:23:59.942Z,1.19
2022-11-04T16:26:30.085Z,13.60
2022-11-04T16:28:56.535Z,31.11
2022-11-04T16:31:23.041Z,12.67
2022-11-04T16:33:49.704Z,14.77
2022-11-04T16:36:16.221Z,8.24
2022-11-04T16:38:42.720Z,13.36
2022-11-04T16:41:09.510Z,74.59
2022-11-04T16:43:36.268Z,98.47
2022-11-04T16:46:02.792Z,106.16
2022-11-04T16:48:29.600Z,115.68
2022-11-04T16:54:14.039Z,17.24
2022-11-04T16:56:40.557Z,18.96
2022-11-04T16:59:07.041Z,28.10
2022-11-04T17:01:37.880Z,5.33
2022-11-04T17:04:04.829Z,1.93
2022-11-04T20:12:07.304Z,2.82
2022-11-04T20:35:26.070Z,62.82
2022-11-04T20:38:05.966Z,69.33
2022-11-04T20:40:49.012Z,47.68
2022-11-04T20:43:19.942Z,11.92
2022-11-04T20:45:52.109Z,5.78
2022-11-04T20:51:39.417Z,55.69
2022-11-04T20:54:25.291Z,43.79
2022-11-04T20:56:53.465Z,25.11
2022-11-04T20:59:22.477Z,10.04
2022-11-04T21:01:54.335Z,42.60
2022-11-04T21:04:25.667Z,30.39
2022-11-04T21:09:51.083Z,37.67
2022-11-04T21:12:18.449Z,57.82
2022-11-04T21:14:45.015Z,37.07
2022-11-04T21:17:13.983Z,11.76
2022-11-04T21:19:40.501Z,5.37
2022-11-04T21:22:07.472Z,5.62
2022-11-04T21:24:38.966Z,57.68
2022-11-04T21:27:06.086Z,21.76
2022-11-04T21:29:33.470Z,27.67
2022-11-04T21:31:59.929Z,8.70
2022-11-04T21:34:28.938Z,17.80
2022-11-04T21:36:57.684Z,3.93
2022-11-04T21:39:26.674Z,3.21
2022-11-04T21:41:53.458Z,2.27
2022-11-04T21:44:20.192Z,2.05
2022-11-04T21:46:46.781Z,1.72
2022-11-04T21:49:15.060Z,1.73
2022-11-04T21:51:41.536Z,1.70
2022-11-04T21:54:08.325Z,2.39
2022-11-04T21:56:41.206Z,2.05
2022-11-04T22:02:28.360Z,2.25
2022-11-04T22:04:56.103Z,1.74
2022-11-04T22:07:42.183Z,1.45
2022-11-04T22:10:10.229Z,1.48
2022-11-04T22:15:05.029Z,1.05
2022-11-04T22:17:33.965Z,1.52
2022-11-04T22:20:00.939Z,1.06
2022-11-04T22:22:27.426Z,1.36
2022-11-04T22:24:55.103Z,1.93
2022-11-04T22:27:21.716Z,54.43
